• Join FlightAware (Why Join?)
  • Login
  • US Flag 
12:29PM EDT


 

Airport Tracker/Info


-or-


 

Live Flight TrackerFlight Track Log ✈ SKW2969 ✈ 09-May-2013 ✈ KPHX - KBFL

Flight Track Log - Related Links

Times and Time Zones

All times are in EDT time to prevent confusion due to time zone crossing. See the SKW2969 flight status page for this flight to view local times or setup timezone preferences in your user account.

Time Position Orientation Groundspeed Altitude Reporting Facility
EDT Latitude Longitude Course Direction KTS MPH feet Rate Location/Type
08:01PM 33.4333 -112.0333 250° West 174 200 2,100  Level Phoenix TRACON
08:01PM 33.4269 -112.0542 250° West 174 200 2,500 1,440 Climbing Albuquerque Center
08:02PM 33.4089 -112.1264 253° West 216 249 4,200 1,980 Climbing Albuquerque Center
08:03PM 33.3881 -112.2147 254° West 260 299 6,600 2,460 Climbing Albuquerque Center
08:04PM 33.3956 -112.3069 276° West 287 330 9,300 2,400 Climbing Albuquerque Center
08:05PM 33.4094 -112.4250 278° West 295 339 11,600 2,100 Climbing Albuquerque Center
08:06PM 33.4200 -112.5319 277° West 312 359 13,700 2,040 Climbing Albuquerque Center
08:07PM 33.4342 -112.6467 278° West 326 375 15,900 1,980 Climbing Albuquerque Center
08:08PM 33.4461 -112.7589 277° West 336 387 17,800 1,740 Climbing Albuquerque Center
08:10PM 33.4617 -112.8714 279° West 342 394 19,600 1,560 Climbing Albuquerque Center
08:11PM 33.4850 -112.9858 284° West 351 404 21,100 1,440 Climbing Albuquerque Center
08:12PM 33.5064 -113.1014 283° West 355 409 22,600 1,260 Climbing Albuquerque Center
08:13PM 33.5264 -113.2189 282° West 361 415 23,800 1,200 Climbing Albuquerque Center
08:14PM 33.5328 -113.3656 273° West 367 422 25,100 1,140 Climbing Albuquerque Center
08:15PM 33.5461 -113.4886 277° West 372 428 26,200 900 Climbing Albuquerque Center
08:16PM 33.5614 -113.6128 278° West 377 434 27,000 780 Climbing Albuquerque Center
08:17PM 33.5792 -113.7378 280° West 381 438 27,900 480 Climbing Albuquerque Center
08:18PM 33.5981 -113.8678 280° West 391 450 28,000  Climbing Albuquerque Center
08:19PM 33.6178 -114.0003 280° West 399 459 28,000  Level Albuquerque Center
08:20PM 33.6536 -114.1328 288° West 405 466 28,000  Level Albuquerque Center
08:21PM 33.7053 -114.2956 291° West 419 482 28,000 480 Level Albuquerque Center
08:22PM 33.7400 -114.4283 287° West 420 483 29,000 960 Climbing Albuquerque Center
08:22PM 33.7514 -114.4614 293° West 416 479 29,300 720 Climbing Los Angeles Center
08:23PM 33.7844 -114.5892 287° West 406 467 30,000 300 Climbing Los Angeles Center
08:24PM 33.8128 -114.6947 288° West 411 473 30,000  Level Los Angeles Center
08:25PM 33.8603 -114.8853 287° West 426 490 30,000 -60 Level Los Angeles Center
08:26PM 33.8958 -115.0203 288° West 425 489 29,900  Descending Los Angeles Center
08:27PM 33.9292 -115.1547 287° West 423 487 30,000  Climbing Los Angeles Center
08:28PM 33.9633 -115.2892 287° West 421 484 30,000  Level Los Angeles Center
08:29PM 33.9978 -115.4242 287° West 424 488 30,000  Level Los Angeles Center
08:30PM 34.0322 -115.5558 288° West 417 480 30,000  Level Los Angeles Center
08:31PM 34.0708 -115.7153 286° West 415 478 30,000  Level Los Angeles Center
08:32PM 34.1033 -115.8464 287° West 412 474 30,000  Level Los Angeles Center
08:34PM 34.1367 -115.9806 287° West 410 472 30,000  Level Los Angeles Center
08:35PM 34.1697 -116.1117 287° West 410 472 30,000  Level Los Angeles Center
08:36PM 34.2017 -116.2444 286° West 411 473 30,000  Level Los Angeles Center
08:37PM 34.2342 -116.3792 286° West 416 479 30,000  Level Los Angeles Center
08:38PM 34.2658 -116.5136 286° West 418 481 30,000  Level Los Angeles Center
08:39PM 34.3067 -116.6731 287° West 414 476 30,000  Level Los Angeles Center
08:40PM 34.3392 -116.8081 286° West 417 480 30,000  Level Los Angeles Center
08:41PM 34.3711 -116.9442 286° West 420 483 30,000  Level Los Angeles Center
08:42PM 34.4036 -117.0800 286° West 420 483 30,000  Level Los Angeles Center
08:43PM 34.4356 -117.2167 286° West 421 484 30,000  Level Los Angeles Center
08:44PM 34.4669 -117.3531 286° West 419 482 30,000 -1,260 Level Los Angeles Center
08:45PM 34.5183 -117.5072 292° West 409 471 27,500 -2,460 Descending Los Angeles Center
08:46PM 34.5764 -117.6161 303° West 387 445 25,000 -2,040 Descending Los Angeles Center
08:47PM 34.6336 -117.7269 302° West 386 444 23,300 -1,740 Descending Los Angeles Center
08:48PM 34.6914 -117.8400 302° West 392 451 21,500 -1,620 Descending Los Angeles Center
08:49PM 34.7519 -117.9572 302° West 404 465 20,000 -900 Descending Los Angeles Center
08:50PM 34.8083 -118.0672 302° West 385 443 19,700 -1,080 Descending Los Angeles Center
08:51PM 34.8625 -118.1719 302° West 369 425 17,800 -1,920 Descending Los Angeles Center
08:52PM 34.9231 -118.2922 302° West 351 404 15,700 -1,860 Descending Los Angeles Center
08:53PM 34.9725 -118.3892 302° West 340 391 14,000 -1,380 Descending Los Angeles Center
08:54PM 35.0228 -118.4875 302° West 334 384 12,900 -1,620 Descending Los Angeles Center
08:55PM 35.0694 -118.5783 302° West 321 369 10,700 -1,500 Descending Los Angeles Center
08:56PM 35.1139 -118.6661 302° West 310 357 9,900 -900 Descending Los Angeles Center
08:57PM 35.1636 -118.7331 312° West 279 321 8,900 -480 Descending Los Angeles Center
08:58PM 35.2189 -118.7950 318° Northwest 273 314 9,000 -300 Climbing Los Angeles Center
08:59PM 35.2753 -118.8600 317° Northwest 245 282 8,300 -1,500 Descending Los Angeles Center
09:00PM 35.3147 -118.9131 312° West 222 255 5,900 -2,340 Descending Los Angeles Center
09:02PM 35.3916 -119.0082 321° Northwest  Level FlightAware Approximate
09:09PM 35.4333 -119.0500 321° Northwest  Level FlightAware Approximate